sensor_id;sensor_type;location;lat;lon;timestamp;P1;durP1;ratioP1;P2;durP2;ratioP2
1402;SDS011;696;48.546;9.896;2022-10-31T00:00:21;16.65;;;4.30;;
1402;SDS011;696;48.546;9.896;2022-10-31T00:02:46;21.85;;;3.63;;
1402;SDS011;696;48.546;9.896;2022-10-31T00:05:12;11.80;;;3.80;;
1402;SDS011;696;48.546;9.896;2022-10-31T00:07:37;9.60;;;4.30;;
1402;SDS011;696;48.546;9.896;2022-10-31T00:10:03;12.90;;;3.85;;
1402;SDS011;696;48.546;9.896;2022-10-31T00:12:28;6.60;;;3.88;;
1402;SDS011;696;48.546;9.896;2022-10-31T00:14:53;12.15;;;4.00;;
1402;SDS011;696;48.546;9.896;2022-10-31T00:17:19;7.57;;;3.25;;
1402;SDS011;696;48.546;9.896;2022-10-31T00:19:44;6.45;;;3.55;;
1402;SDS011;696;48.546;9.896;2022-10-31T00:22:10;9.93;;;3.78;;
1402;SDS011;696;48.546;9.896;2022-10-31T00:24:35;11.07;;;3.83;;
1402;SDS011;696;48.546;9.896;2022-10-31T00:27:00;12.90;;;3.58;;
1402;SDS011;696;48.546;9.896;2022-10-31T00:29:26;7.28;;;3.42;;
1402;SDS011;696;48.546;9.896;2022-10-31T00:31:51;9.02;;;3.30;;
1402;SDS011;696;48.546;9.896;2022-10-31T00:34:17;9.07;;;3.60;;
1402;SDS011;696;48.546;9.896;2022-10-31T00:36:42;5.90;;;3.20;;
1402;SDS011;696;48.546;9.896;2022-10-31T00:39:08;11.25;;;3.35;;
1402;SDS011;696;48.546;9.896;2022-10-31T00:41:33;19.20;;;3.33;;
1402;SDS011;696;48.546;9.896;2022-10-31T00:43:59;7.97;;;3.58;;
1402;SDS011;696;48.546;9.896;2022-10-31T00:46:24;9.57;;;4.10;;
1402;SDS011;696;48.546;9.896;2022-10-31T00:48:49;8.52;;;3.55;;
1402;SDS011;696;48.546;9.896;2022-10-31T00:51:15;8.35;;;3.83;;
1402;SDS011;696;48.546;9.896;2022-10-31T00:53:40;5.65;;;3.25;;
1402;SDS011;696;48.546;9.896;2022-10-31T00:56:05;6.18;;;3.33;;
1402;SDS011;696;48.546;9.896;2022-10-31T00:58:31;6.80;;;3.65;;
1402;SDS011;696;48.546;9.896;2022-10-31T01:00:56;8.43;;;3.70;;
1402;SDS011;696;48.546;9.896;2022-10-31T01:03:23;12.60;;;3.97;;
1402;SDS011;696;48.546;9.896;2022-10-31T01:08:27;6.50;;;3.50;;
1402;SDS011;696;48.546;9.896;2022-10-31T01:11:26;6.90;;;3.45;;
1402;SDS011;696;48.546;9.896;2022-10-31T01:13:45;6.45;;;3.55;;
1402;SDS011;696;48.546;9.896;2022-10-31T01:16:12;19.40;;;4.45;;
1402;SDS011;696;48.546;9.896;2022-10-31T01:18:42;8.65;;;3.17;;
1402;SDS011;696;48.546;9.896;2022-10-31T01:21:12;24.30;;;4.45;;
1402;SDS011;696;48.546;9.896;2022-10-31T01:23:39;7.10;;;3.50;;
1402;SDS011;696;48.546;9.896;2022-10-31T01:26:08;11.15;;;3.60;;
1402;SDS011;696;48.546;9.896;2022-10-31T01:28:50;10.00;;;3.13;;
1402;SDS011;696;48.546;9.896;2022-10-31T01:31:19;4.78;;;3.20;;
1402;SDS011;696;48.546;9.896;2022-10-31T01:33:46;8.88;;;4.03;;
1402;SDS011;696;48.546;9.896;2022-10-31T01:38:45;13.02;;;3.90;;
1402;SDS011;696;48.546;9.896;2022-10-31T01:41:12;13.73;;;3.92;;
1402;SDS011;696;48.546;9.896;2022-10-31T01:43:43;12.73;;;3.85;;
1402;SDS011;696;48.546;9.896;2022-10-31T01:46:11;9.25;;;3.63;;
1402;SDS011;696;48.546;9.896;2022-10-31T01:48:39;7.32;;;3.20;;
1402;SDS011;696;48.546;9.896;2022-10-31T01:51:05;19.95;;;4.00;;
1402;SDS011;696;48.546;9.896;2022-10-31T01:53:31;9.88;;;3.75;;
1402;SDS011;696;48.546;9.896;2022-10-31T01:55:56;6.97;;;3.60;;
1402;SDS011;696;48.546;9.896;2022-10-31T01:58:22;9.52;;;3.40;;
1402;SDS011;696;48.546;9.896;2022-10-31T02:00:50;8.70;;;3.10;;
1402;SDS011;696;48.546;9.896;2022-10-31T02:03:18;11.30;;;3.42;;
1402;SDS011;696;48.546;9.896;2022-10-31T02:05:44;25.77;;;4.10;;
1402;SDS011;696;48.546;9.896;2022-10-31T02:10:37;6.65;;;3.72;;
1402;SDS011;696;48.546;9.896;2022-10-31T02:13:04;15.05;;;3.75;;
1402;SDS011;696;48.546;9.896;2022-10-31T02:15:31;8.65;;;3.40;;
1402;SDS011;696;48.546;9.896;2022-10-31T02:17:58;8.55;;;3.40;;
1402;SDS011;696;48.546;9.896;2022-10-31T02:20:24;10.95;;;3.22;;
1402;SDS011;696;48.546;9.896;2022-10-31T02:39:36;9.90;;;3.65;;
1402;SDS011;696;48.546;9.896;2022-10-31T02:42:18;8.20;;;3.55;;
1402;SDS011;696;48.546;9.896;2022-10-31T02:45:11;14.15;;;4.13;;
1402;SDS011;696;48.546;9.896;2022-10-31T02:47:42;6.05;;;3.05;;
1402;SDS011;696;48.546;9.896;2022-10-31T02:50:16;9.57;;;3.65;;
1402;SDS011;696;48.546;9.896;2022-10-31T02:52:42;12.93;;;3.75;;
1402;SDS011;696;48.546;9.896;2022-10-31T02:55:09;18.83;;;3.30;;
1402;SDS011;696;48.546;9.896;2022-10-31T02:58:05;7.88;;;2.70;;
1402;SDS011;696;48.546;9.896;2022-10-31T03:00:37;6.00;;;3.20;;
1402;SDS011;696;48.546;9.896;2022-10-31T03:03:36;7.05;;;3.40;;
1402;SDS011;696;48.546;9.896;2022-10-31T03:11:20;6.60;;;3.28;;
1402;SDS011;696;48.546;9.896;2022-10-31T03:16:29;15.48;;;3.50;;
1402;SDS011;696;48.546;9.896;2022-10-31T03:19:09;5.70;;;3.33;;
1402;SDS011;696;48.546;9.896;2022-10-31T03:21:38;8.65;;;3.03;;
1402;SDS011;696;48.546;9.896;2022-10-31T03:24:05;5.97;;;2.72;;
1402;SDS011;696;48.546;9.896;2022-10-31T03:26:32;13.48;;;3.25;;
1402;SDS011;696;48.546;9.896;2022-10-31T03:29:00;13.23;;;3.53;;
1402;SDS011;696;48.546;9.896;2022-10-31T03:31:32;5.68;;;3.20;;
1402;SDS011;696;48.546;9.896;2022-10-31T03:34:00;7.07;;;2.90;;
1402;SDS011;696;48.546;9.896;2022-10-31T03:36:26;4.60;;;2.38;;
1402;SDS011;696;48.546;9.896;2022-10-31T03:38:54;7.80;;;3.58;;
1402;SDS011;696;48.546;9.896;2022-10-31T03:41:24;19.08;;;3.40;;
1402;SDS011;696;48.546;9.896;2022-10-31T03:44:12;8.43;;;3.17;;
1402;SDS011;696;48.546;9.896;2022-10-31T03:46:39;7.47;;;3.08;;
1402;SDS011;696;48.546;9.896;2022-10-31T03:49:04;10.48;;;3.50;;
1402;SDS011;696;48.546;9.896;2022-10-31T03:51:38;12.23;;;3.90;;
1402;SDS011;696;48.546;9.896;2022-10-31T03:54:13;6.63;;;3.05;;
1402;SDS011;696;48.546;9.896;2022-10-31T03:57:50;8.10;;;3.28;;
1402;SDS011;696;48.546;9.896;2022-10-31T04:00:07;6.47;;;3.00;;
1402;SDS011;696;48.546;9.896;2022-10-31T04:02:34;9.13;;;3.55;;
1402;SDS011;696;48.546;9.896;2022-10-31T04:05:05;11.25;;;3.47;;
1402;SDS011;696;48.546;9.896;2022-10-31T04:07:37;6.93;;;2.65;;
1402;SDS011;696;48.546;9.896;2022-10-31T04:10:07;16.80;;;2.90;;
1402;SDS011;696;48.546;9.896;2022-10-31T04:12:33;4.97;;;3.10;;
1402;SDS011;696;48.546;9.896;2022-10-31T04:14:59;24.90;;;3.55;;
1402;SDS011;696;48.546;9.896;2022-10-31T04:17:27;9.13;;;3.05;;
1402;SDS011;696;48.546;9.896;2022-10-31T04:19:55;6.93;;;3.33;;
1402;SDS011;696;48.546;9.896;2022-10-31T04:22:20;6.50;;;3.50;;
1402;SDS011;696;48.546;9.896;2022-10-31T04:24:45;7.10;;;3.03;;
1402;SDS011;696;48.546;9.896;2022-10-31T04:27:11;6.90;;;2.75;;
1402;SDS011;696;48.546;9.896;2022-10-31T04:29:36;14.95;;;3.60;;
1402;SDS011;696;48.546;9.896;2022-10-31T04:32:01;12.40;;;3.60;;
1402;SDS011;696;48.546;9.896;2022-10-31T04:34:27;5.38;;;3.33;;
1402;SDS011;696;48.546;9.896;2022-10-31T04:36:52;5.90;;;3.45;;
1402;SDS011;696;48.546;9.896;2022-10-31T04:39:17;9.75;;;3.92;;
1402;SDS011;696;48.546;9.896;2022-10-31T04:41:43;7.25;;;2.95;;
1402;SDS011;696;48.546;9.896;2022-10-31T04:44:08;6.25;;;3.60;;
1402;SDS011;696;48.546;9.896;2022-10-31T04:46:33;6.28;;;3.10;;
1402;SDS011;696;48.546;9.896;2022-10-31T04:48:59;6.05;;;3.10;;
1402;SDS011;696;48.546;9.896;2022-10-31T04:51:24;5.05;;;3.00;;
1402;SDS011;696;48.546;9.896;2022-10-31T04:53:50;11.98;;;3.33;;
1402;SDS011;696;48.546;9.896;2022-10-31T04:56:15;7.82;;;3.53;;
1402;SDS011;696;48.546;9.896;2022-10-31T04:58:40;8.73;;;3.08;;
1402;SDS011;696;48.546;9.896;2022-10-31T05:01:06;7.38;;;3.42;;
1402;SDS011;696;48.546;9.896;2022-10-31T05:03:31;10.80;;;4.20;;
1402;SDS011;696;48.546;9.896;2022-10-31T05:05:56;13.00;;;3.72;;
1402;SDS011;696;48.546;9.896;2022-10-31T05:08:22;5.35;;;3.28;;
1402;SDS011;696;48.546;9.896;2022-10-31T05:10:47;9.20;;;3.35;;
1402;SDS011;696;48.546;9.896;2022-10-31T05:13:12;6.88;;;3.03;;
1402;SDS011;696;48.546;9.896;2022-10-31T05:15:39;7.75;;;3.47;;
1402;SDS011;696;48.546;9.896;2022-10-31T05:18:05;6.47;;;3.83;;
1402;SDS011;696;48.546;9.896;2022-10-31T05:20:30;6.03;;;2.90;;
1402;SDS011;696;48.546;9.896;2022-10-31T05:22:56;7.10;;;3.10;;
1402;SDS011;696;48.546;9.896;2022-10-31T05:25:23;6.82;;;2.83;;
1402;SDS011;696;48.546;9.896;2022-10-31T05:27:49;10.88;;;3.80;;
1402;SDS011;696;48.546;9.896;2022-10-31T05:30:20;9.70;;;3.10;;
1402;SDS011;696;48.546;9.896;2022-10-31T05:32:50;9.18;;;2.80;;
1402;SDS011;696;48.546;9.896;2022-10-31T05:35:17;6.78;;;3.42;;
1402;SDS011;696;48.546;9.896;2022-10-31T05:37:44;9.05;;;3.47;;
1402;SDS011;696;48.546;9.896;2022-10-31T05:40:11;6.85;;;3.38;;
1402;SDS011;696;48.546;9.896;2022-10-31T05:42:38;6.78;;;3.30;;
1402;SDS011;696;48.546;9.896;2022-10-31T05:45:05;8.50;;;3.30;;
1402;SDS011;696;48.546;9.896;2022-10-31T05:47:31;5.68;;;3.08;;
1402;SDS011;696;48.546;9.896;2022-10-31T05:49:57;14.38;;;4.07;;
1402;SDS011;696;48.546;9.896;2022-10-31T05:52:22;6.25;;;3.65;;
1402;SDS011;696;48.546;9.896;2022-10-31T05:54:48;6.55;;;3.15;;
1402;SDS011;696;48.546;9.896;2022-10-31T05:57:13;19.77;;;3.47;;
1402;SDS011;696;48.546;9.896;2022-10-31T05:59:38;9.07;;;3.40;;
1402;SDS011;696;48.546;9.896;2022-10-31T06:02:04;6.53;;;3.67;;
1402;SDS011;696;48.546;9.896;2022-10-31T06:04:29;5.82;;;3.50;;
1402;SDS011;696;48.546;9.896;2022-10-31T06:06:55;10.20;;;3.95;;
1402;SDS011;696;48.546;9.896;2022-10-31T06:09:21;14.23;;;4.72;;
1402;SDS011;696;48.546;9.896;2022-10-31T06:11:46;7.70;;;4.15;;
1402;SDS011;696;48.546;9.896;2022-10-31T06:14:12;11.45;;;3.80;;
1402;SDS011;696;48.546;9.896;2022-10-31T06:16:37;6.60;;;3.88;;
1402;SDS011;696;48.546;9.896;2022-10-31T06:19:02;7.45;;;4.20;;
1402;SDS011;696;48.546;9.896;2022-10-31T06:21:28;6.10;;;3.38;;
1402;SDS011;696;48.546;9.896;2022-10-31T06:23:53;6.82;;;3.78;;
1402;SDS011;696;48.546;9.896;2022-10-31T06:26:18;7.15;;;3.80;;
1402;SDS011;696;48.546;9.896;2022-10-31T06:28:44;13.13;;;4.20;;
1402;SDS011;696;48.546;9.896;2022-10-31T06:31:09;12.23;;;3.60;;
1402;SDS011;696;48.546;9.896;2022-10-31T06:33:34;6.03;;;3.45;;
1402;SDS011;696;48.546;9.896;2022-10-31T06:36:00;7.20;;;3.35;;
1402;SDS011;696;48.546;9.896;2022-10-31T06:38:26;9.32;;;4.55;;
1402;SDS011;696;48.546;9.896;2022-10-31T06:40:52;10.15;;;4.20;;
1402;SDS011;696;48.546;9.896;2022-10-31T06:43:17;9.60;;;3.85;;
1402;SDS011;696;48.546;9.896;2022-10-31T06:45:43;10.93;;;3.78;;
1402;SDS011;696;48.546;9.896;2022-10-31T06:48:08;13.27;;;4.20;;
1402;SDS011;696;48.546;9.896;2022-10-31T06:50:33;13.05;;;3.75;;
1402;SDS011;696;48.546;9.896;2022-10-31T06:52:59;11.07;;;4.22;;
1402;SDS011;696;48.546;9.896;2022-10-31T06:55:24;15.10;;;4.25;;
1402;SDS011;696;48.546;9.896;2022-10-31T06:57:54;11.38;;;3.75;;
1402;SDS011;696;48.546;9.896;2022-10-31T07:00:24;11.05;;;3.55;;
1402;SDS011;696;48.546;9.896;2022-10-31T07:02:57;12.75;;;3.80;;
1402;SDS011;696;48.546;9.896;2022-10-31T07:05:23;8.50;;;4.30;;
1402;SDS011;696;48.546;9.896;2022-10-31T07:07:56;5.25;;;3.30;;
1402;SDS011;696;48.546;9.896;2022-10-31T07:10:23;6.32;;;4.00;;
1402;SDS011;696;48.546;9.896;2022-10-31T07:12:57;5.07;;;3.17;;
1402;SDS011;696;48.546;9.896;2022-10-31T07:15:23;9.02;;;3.40;;
1402;SDS011;696;48.546;9.896;2022-10-31T07:17:52;8.20;;;4.18;;
1402;SDS011;696;48.546;9.896;2022-10-31T07:20:18;11.20;;;4.90;;
1402;SDS011;696;48.546;9.896;2022-10-31T07:22:43;6.50;;;3.67;;
1402;SDS011;696;48.546;9.896;2022-10-31T07:25:09;8.90;;;4.40;;
1402;SDS011;696;48.546;9.896;2022-10-31T07:27:44;11.00;;;4.07;;
1402;SDS011;696;48.546;9.896;2022-10-31T07:30:10;8.30;;;3.63;;
1402;SDS011;696;48.546;9.896;2022-10-31T07:32:46;5.75;;;4.00;;
1402;SDS011;696;48.546;9.896;2022-10-31T07:35:14;12.40;;;4.70;;
1402;SDS011;696;48.546;9.896;2022-10-31T07:37:40;11.18;;;4.05;;
1402;SDS011;696;48.546;9.896;2022-10-31T07:40:06;10.60;;;4.68;;
1402;SDS011;696;48.546;9.896;2022-10-31T07:42:42;16.42;;;4.40;;
1402;SDS011;696;48.546;9.896;2022-10-31T07:45:09;8.95;;;4.60;;
1402;SDS011;696;48.546;9.896;2022-10-31T07:47:46;7.75;;;4.57;;
1402;SDS011;696;48.546;9.896;2022-10-31T07:50:14;5.15;;;3.70;;
1402;SDS011;696;48.546;9.896;2022-10-31T07:52:43;11.57;;;4.43;;
1402;SDS011;696;48.546;9.896;2022-10-31T07:55:09;12.32;;;4.13;;
1402;SDS011;696;48.546;9.896;2022-10-31T07:57:35;7.63;;;4.47;;
1402;SDS011;696;48.546;9.896;2022-10-31T08:00:02;19.58;;;6.30;;
1402;SDS011;696;48.546;9.896;2022-10-31T08:02:31;10.23;;;4.82;;
1402;SDS011;696;48.546;9.896;2022-10-31T08:04:57;8.73;;;5.28;;
1402;SDS011;696;48.546;9.896;2022-10-31T08:07:22;11.10;;;6.28;;
1402;SDS011;696;48.546;9.896;2022-10-31T08:09:48;17.75;;;6.10;;
1402;SDS011;696;48.546;9.896;2022-10-31T08:12:13;12.77;;;5.60;;
1402;SDS011;696;48.546;9.896;2022-10-31T08:14:38;10.20;;;5.22;;
1402;SDS011;696;48.546;9.896;2022-10-31T08:17:04;7.95;;;4.57;;
1402;SDS011;696;48.546;9.896;2022-10-31T08:19:29;15.43;;;5.18;;
1402;SDS011;696;48.546;9.896;2022-10-31T08:21:55;10.73;;;4.68;;
1402;SDS011;696;48.546;9.896;2022-10-31T08:24:20;9.95;;;4.65;;
1402;SDS011;696;48.546;9.896;2022-10-31T08:26:46;18.00;;;6.03;;
1402;SDS011;696;48.546;9.896;2022-10-31T08:29:11;9.75;;;5.35;;
1402;SDS011;696;48.546;9.896;2022-10-31T08:31:37;10.07;;;5.38;;
1402;SDS011;696;48.546;9.896;2022-10-31T08:34:03;9.88;;;5.53;;
1402;SDS011;696;48.546;9.896;2022-10-31T08:36:28;10.10;;;4.80;;
1402;SDS011;696;48.546;9.896;2022-10-31T08:38:54;15.70;;;4.78;;
1402;SDS011;696;48.546;9.896;2022-10-31T08:41:19;16.55;;;5.28;;
1402;SDS011;696;48.546;9.896;2022-10-31T08:43:46;15.35;;;7.10;;
1402;SDS011;696;48.546;9.896;2022-10-31T08:46:11;12.55;;;6.40;;
1402;SDS011;696;48.546;9.896;2022-10-31T08:48:37;13.40;;;6.00;;
1402;SDS011;696;48.546;9.896;2022-10-31T08:51:02;12.57;;;5.50;;
1402;SDS011;696;48.546;9.896;2022-10-31T08:53:28;12.45;;;5.35;;
1402;SDS011;696;48.546;9.896;2022-10-31T08:55:54;11.48;;;4.97;;
1402;SDS011;696;48.546;9.896;2022-10-31T08:58:20;21.60;;;5.40;;
1402;SDS011;696;48.546;9.896;2022-10-31T09:00:47;18.20;;;5.00;;
1402;SDS011;696;48.546;9.896;2022-10-31T09:03:19;12.88;;;4.78;;
1402;SDS011;696;48.546;9.896;2022-10-31T09:05:46;9.50;;;4.88;;
1402;SDS011;696;48.546;9.896;2022-10-31T09:08:11;11.48;;;5.15;;
1402;SDS011;696;48.546;9.896;2022-10-31T09:10:37;8.88;;;5.05;;
1402;SDS011;696;48.546;9.896;2022-10-31T09:13:07;16.15;;;4.90;;
1402;SDS011;696;48.546;9.896;2022-10-31T09:15:35;9.43;;;4.97;;
1402;SDS011;696;48.546;9.896;2022-10-31T09:18:03;16.50;;;4.60;;
1402;SDS011;696;48.546;9.896;2022-10-31T09:20:30;7.68;;;4.22;;
1402;SDS011;696;48.546;9.896;2022-10-31T09:23:00;12.25;;;4.22;;
1402;SDS011;696;48.546;9.896;2022-10-31T09:25:27;17.58;;;5.43;;
1402;SDS011;696;48.546;9.896;2022-10-31T09:27:56;16.20;;;5.53;;
1402;SDS011;696;48.546;9.896;2022-10-31T09:30:23;14.65;;;5.40;;
1402;SDS011;696;48.546;9.896;2022-10-31T09:32:54;24.58;;;5.03;;
1402;SDS011;696;48.546;9.896;2022-10-31T09:35:23;16.58;;;5.25;;
1402;SDS011;696;48.546;9.896;2022-10-31T09:37:55;14.30;;;5.03;;
1402;SDS011;696;48.546;9.896;2022-10-31T09:40:30;13.32;;;5.72;;
1402;SDS011;696;48.546;9.896;2022-10-31T09:48:30;8.77;;;5.90;;
1402;SDS011;696;48.546;9.896;2022-10-31T09:51:01;16.20;;;6.05;;
1402;SDS011;696;48.546;9.896;2022-10-31T09:55:58;23.48;;;12.15;;
1402;SDS011;696;48.546;9.896;2022-10-31T09:58:25;26.50;;;15.38;;
1402;SDS011;696;48.546;9.896;2022-10-31T10:00:53;31.98;;;15.90;;
1402;SDS011;696;48.546;9.896;2022-10-31T10:08:25;27.20;;;13.70;;
1402;SDS011;696;48.546;9.896;2022-10-31T10:16:35;25.25;;;11.90;;
1402;SDS011;696;48.546;9.896;2022-10-31T10:32:24;19.15;;;10.15;;
1402;SDS011;696;48.546;9.896;2022-10-31T10:34:55;21.95;;;11.27;;
1402;SDS011;696;48.546;9.896;2022-10-31T10:37:42;22.92;;;11.55;;
1402;SDS011;696;48.546;9.896;2022-10-31T10:40:14;20.67;;;10.85;;
1402;SDS011;696;48.546;9.896;2022-10-31T10:42:44;37.53;;;12.82;;
1402;SDS011;696;48.546;9.896;2022-10-31T10:45:29;22.40;;;11.65;;
1402;SDS011;696;48.546;9.896;2022-10-31T10:51:18;23.73;;;12.85;;
1402;SDS011;696;48.546;9.896;2022-10-31T10:56:35;21.60;;;10.85;;
1402;SDS011;696;48.546;9.896;2022-10-31T10:59:06;22.98;;;10.43;;
1402;SDS011;696;48.546;9.896;2022-10-31T11:01:34;33.45;;;11.50;;
1402;SDS011;696;48.546;9.896;2022-10-31T11:04:01;21.65;;;11.77;;
1402;SDS011;696;48.546;9.896;2022-10-31T11:06:27;25.55;;;11.82;;
1402;SDS011;696;48.546;9.896;2022-10-31T11:08:53;22.75;;;11.93;;
1402;SDS011;696;48.546;9.896;2022-10-31T11:11:30;36.63;;;11.88;;
1402;SDS011;696;48.546;9.896;2022-10-31T11:13:58;32.85;;;11.15;;
1402;SDS011;696;48.546;9.896;2022-10-31T11:18:50;32.80;;;12.03;;
1402;SDS011;696;48.546;9.896;2022-10-31T11:21:26;27.23;;;12.88;;
1402;SDS011;696;48.546;9.896;2022-10-31T11:26:38;31.40;;;11.15;;
1402;SDS011;696;48.546;9.896;2022-10-31T11:29:04;29.52;;;10.73;;
1402;SDS011;696;48.546;9.896;2022-10-31T11:31:34;30.83;;;12.15;;
1402;SDS011;696;48.546;9.896;2022-10-31T11:34:00;18.50;;;11.20;;
1402;SDS011;696;48.546;9.896;2022-10-31T11:36:31;34.08;;;11.52;;
1402;SDS011;696;48.546;9.896;2022-10-31T11:38:58;17.48;;;11.18;;
1402;SDS011;696;48.546;9.896;2022-10-31T11:41:25;24.77;;;12.05;;
1402;SDS011;696;48.546;9.896;2022-10-31T11:43:57;26.73;;;10.32;;
1402;SDS011;696;48.546;9.896;2022-10-31T11:46:42;26.85;;;11.40;;
1402;SDS011;696;48.546;9.896;2022-10-31T11:49:14;35.72;;;11.52;;
1402;SDS011;696;48.546;9.896;2022-10-31T11:51:42;25.52;;;11.25;;
1402;SDS011;696;48.546;9.896;2022-10-31T11:54:19;21.52;;;10.50;;
1402;SDS011;696;48.546;9.896;2022-10-31T11:56:47;26.45;;;10.32;;
1402;SDS011;696;48.546;9.896;2022-10-31T11:59:15;23.92;;;10.65;;
1402;SDS011;696;48.546;9.896;2022-10-31T12:01:48;19.27;;;9.50;;
1402;SDS011;696;48.546;9.896;2022-10-31T12:04:14;18.80;;;9.10;;
1402;SDS011;696;48.546;9.896;2022-10-31T12:06:42;29.05;;;9.27;;
1402;SDS011;696;48.546;9.896;2022-10-31T12:09:18;26.55;;;10.23;;
1402;SDS011;696;48.546;9.896;2022-10-31T12:17:05;37.90;;;10.93;;
1402;SDS011;696;48.546;9.896;2022-10-31T12:19:46;26.70;;;10.15;;
1402;SDS011;696;48.546;9.896;2022-10-31T12:22:58;35.38;;;10.48;;
1402;SDS011;696;48.546;9.896;2022-10-31T12:25:13;25.42;;;9.85;;
1402;SDS011;696;48.546;9.896;2022-10-31T12:28:03;26.00;;;9.20;;
1402;SDS011;696;48.546;9.896;2022-10-31T12:33:20;18.50;;;9.50;;
1402;SDS011;696;48.546;9.896;2022-10-31T12:38:33;31.00;;;10.50;;
1402;SDS011;696;48.546;9.896;2022-10-31T12:44:04;18.38;;;8.05;;
1402;SDS011;696;48.546;9.896;2022-10-31T12:57:38;20.10;;;9.98;;
1402;SDS011;696;48.546;9.896;2022-10-31T13:05:16;28.88;;;11.98;;
1402;SDS011;696;48.546;9.896;2022-10-31T13:07:50;16.70;;;9.43;;
1402;SDS011;696;48.546;9.896;2022-10-31T13:10:21;24.95;;;11.77;;
1402;SDS011;696;48.546;9.896;2022-10-31T13:12:51;24.17;;;11.18;;
1402;SDS011;696;48.546;9.896;2022-10-31T13:15:27;35.78;;;13.07;;
1402;SDS011;696;48.546;9.896;2022-10-31T13:17:59;26.48;;;13.52;;
1402;SDS011;696;48.546;9.896;2022-10-31T13:20:30;19.27;;;11.88;;
1402;SDS011;696;48.546;9.896;2022-10-31T13:23:05;23.40;;;12.18;;
1402;SDS011;696;48.546;9.896;2022-10-31T13:25:33;24.00;;;12.25;;
1402;SDS011;696;48.546;9.896;2022-10-31T13:28:05;20.13;;;12.43;;
1402;SDS011;696;48.546;9.896;2022-10-31T13:30:38;26.30;;;12.13;;
1402;SDS011;696;48.546;9.896;2022-10-31T13:44:08;24.52;;;11.00;;
1402;SDS011;696;48.546;9.896;2022-10-31T13:46:39;38.95;;;12.80;;
1402;SDS011;696;48.546;9.896;2022-10-31T13:49:21;29.65;;;12.07;;
1402;SDS011;696;48.546;9.896;2022-10-31T13:51:49;44.13;;;13.02;;
1402;SDS011;696;48.546;9.896;2022-10-31T13:54:30;27.27;;;11.13;;
1402;SDS011;696;48.546;9.896;2022-10-31T13:56:57;28.27;;;10.77;;
1402;SDS011;696;48.546;9.896;2022-10-31T13:59:23;23.25;;;12.57;;
1402;SDS011;696;48.546;9.896;2022-10-31T14:01:54;31.33;;;11.25;;
1402;SDS011;696;48.546;9.896;2022-10-31T14:04:37;24.15;;;12.10;;
1402;SDS011;696;48.546;9.896;2022-10-31T14:07:11;32.50;;;13.40;;
1402;SDS011;696;48.546;9.896;2022-10-31T14:12:21;21.33;;;11.70;;
1402;SDS011;696;48.546;9.896;2022-10-31T14:14:51;26.00;;;12.90;;
1402;SDS011;696;48.546;9.896;2022-10-31T14:17:24;23.88;;;12.63;;
1402;SDS011;696;48.546;9.896;2022-10-31T14:20:03;30.47;;;13.53;;
1402;SDS011;696;48.546;9.896;2022-10-31T14:22:46;25.95;;;12.60;;
1402;SDS011;696;48.546;9.896;2022-10-31T14:27:54;30.58;;;11.98;;
1402;SDS011;696;48.546;9.896;2022-10-31T14:30:20;22.98;;;11.13;;
1402;SDS011;696;48.546;9.896;2022-10-31T14:32:51;21.83;;;11.52;;
1402;SDS011;696;48.546;9.896;2022-10-31T14:35:18;22.77;;;11.65;;
1402;SDS011;696;48.546;9.896;2022-10-31T14:40:14;24.50;;;12.03;;
1402;SDS011;696;48.546;9.896;2022-10-31T14:51:25;27.30;;;13.90;;
1402;SDS011;696;48.546;9.896;2022-10-31T14:53:57;35.80;;;15.32;;
1402;SDS011;696;48.546;9.896;2022-10-31T14:59:03;27.38;;;14.55;;
1402;SDS011;696;48.546;9.896;2022-10-31T15:01:38;37.53;;;13.88;;
1402;SDS011;696;48.546;9.896;2022-10-31T15:06:50;21.75;;;12.93;;
1402;SDS011;696;48.546;9.896;2022-10-31T15:09:36;25.77;;;15.75;;
1402;SDS011;696;48.546;9.896;2022-10-31T15:14:56;24.85;;;13.80;;
1402;SDS011;696;48.546;9.896;2022-10-31T15:17:23;37.63;;;15.98;;
1402;SDS011;696;48.546;9.896;2022-10-31T15:19:49;30.00;;;16.90;;
1402;SDS011;696;48.546;9.896;2022-10-31T15:22:17;34.88;;;17.10;;
1402;SDS011;696;48.546;9.896;2022-10-31T15:24:44;29.58;;;17.85;;
1402;SDS011;696;48.546;9.896;2022-10-31T15:27:13;31.90;;;15.30;;
1402;SDS011;696;48.546;9.896;2022-10-31T15:32:20;29.90;;;16.98;;
1402;SDS011;696;48.546;9.896;2022-10-31T15:34:48;33.20;;;15.07;;
1402;SDS011;696;48.546;9.896;2022-10-31T15:37:14;29.73;;;15.35;;
1402;SDS011;696;48.546;9.896;2022-10-31T15:39:41;40.72;;;18.50;;
1402;SDS011;696;48.546;9.896;2022-10-31T15:44:56;35.50;;;18.83;;
1402;SDS011;696;48.546;9.896;2022-10-31T15:47:25;36.53;;;17.80;;
1402;SDS011;696;48.546;9.896;2022-10-31T15:52:19;42.08;;;18.85;;
1402;SDS011;696;48.546;9.896;2022-10-31T15:54:59;42.00;;;19.80;;
1402;SDS011;696;48.546;9.896;2022-10-31T15:57:26;31.85;;;17.05;;
1402;SDS011;696;48.546;9.896;2022-10-31T15:59:51;31.55;;;16.75;;
1402;SDS011;696;48.546;9.896;2022-10-31T16:02:19;35.67;;;19.27;;
1402;SDS011;696;48.546;9.896;2022-10-31T16:04:56;30.80;;;19.33;;
1402;SDS011;696;48.546;9.896;2022-10-31T16:07:23;30.23;;;18.25;;
1402;SDS011;696;48.546;9.896;2022-10-31T16:09:50;43.85;;;20.73;;
1402;SDS011;696;48.546;9.896;2022-10-31T16:12:30;40.85;;;19.50;;
1402;SDS011;696;48.546;9.896;2022-10-31T16:14:58;28.80;;;17.63;;
1402;SDS011;696;48.546;9.896;2022-10-31T16:17:24;35.00;;;17.83;;
1402;SDS011;696;48.546;9.896;2022-10-31T16:19:58;35.40;;;19.85;;
1402;SDS011;696;48.546;9.896;2022-10-31T16:22:29;33.35;;;18.83;;
1402;SDS011;696;48.546;9.896;2022-10-31T16:25:21;22.35;;;17.27;;
1402;SDS011;696;48.546;9.896;2022-10-31T16:27:54;31.27;;;21.35;;
1402;SDS011;696;48.546;9.896;2022-10-31T16:30:38;48.40;;;27.60;;
1402;SDS011;696;48.546;9.896;2022-10-31T16:33:10;42.60;;;26.20;;
1402;SDS011;696;48.546;9.896;2022-10-31T16:35:49;50.03;;;25.02;;
1402;SDS011;696;48.546;9.896;2022-10-31T16:38:15;40.38;;;21.98;;
1402;SDS011;696;48.546;9.896;2022-10-31T16:40:40;38.17;;;21.17;;
1402;SDS011;696;48.546;9.896;2022-10-31T16:43:13;32.70;;;19.70;;
1402;SDS011;696;48.546;9.896;2022-10-31T16:45:44;35.58;;;19.83;;
1402;SDS011;696;48.546;9.896;2022-10-31T16:48:12;51.45;;;22.17;;
1402;SDS011;696;48.546;9.896;2022-10-31T16:50:40;41.88;;;21.10;;
1402;SDS011;696;48.546;9.896;2022-10-31T16:53:06;32.15;;;20.33;;
1402;SDS011;696;48.546;9.896;2022-10-31T16:55:31;37.45;;;21.10;;
1402;SDS011;696;48.546;9.896;2022-10-31T16:57:59;26.67;;;19.15;;
1402;SDS011;696;48.546;9.896;2022-10-31T17:00:26;38.30;;;20.35;;
1402;SDS011;696;48.546;9.896;2022-10-31T17:02:53;22.00;;;16.52;;
1402;SDS011;696;48.546;9.896;2022-10-31T17:05:21;28.65;;;18.67;;
1402;SDS011;696;48.546;9.896;2022-10-31T17:07:54;32.17;;;18.92;;
1402;SDS011;696;48.546;9.896;2022-10-31T17:10:22;31.52;;;18.55;;
1402;SDS011;696;48.546;9.896;2022-10-31T17:12:48;24.92;;;15.73;;
1402;SDS011;696;48.546;9.896;2022-10-31T17:15:19;26.30;;;16.40;;
1402;SDS011;696;48.546;9.896;2022-10-31T17:17:46;32.78;;;18.30;;
1402;SDS011;696;48.546;9.896;2022-10-31T17:22:43;34.50;;;18.92;;
1402;SDS011;696;48.546;9.896;2022-10-31T17:25:10;30.98;;;17.67;;
1402;SDS011;696;48.546;9.896;2022-10-31T17:27:38;26.95;;;17.13;;
1402;SDS011;696;48.546;9.896;2022-10-31T17:30:04;30.48;;;16.83;;
1402;SDS011;696;48.546;9.896;2022-10-31T17:32:30;27.42;;;17.35;;
1402;SDS011;696;48.546;9.896;2022-10-31T17:34:55;48.35;;;18.98;;
1402;SDS011;696;48.546;9.896;2022-10-31T17:37:20;25.00;;;16.27;;
1402;SDS011;696;48.546;9.896;2022-10-31T17:39:46;36.05;;;18.55;;
1402;SDS011;696;48.546;9.896;2022-10-31T17:42:11;27.83;;;17.98;;
1402;SDS011;696;48.546;9.896;2022-10-31T17:44:36;32.25;;;18.67;;
1402;SDS011;696;48.546;9.896;2022-10-31T17:47:02;25.55;;;16.90;;
1402;SDS011;696;48.546;9.896;2022-10-31T17:49:27;30.40;;;18.15;;
1402;SDS011;696;48.546;9.896;2022-10-31T17:51:52;26.35;;;17.55;;
1402;SDS011;696;48.546;9.896;2022-10-31T17:54:18;47.05;;;17.80;;
1402;SDS011;696;48.546;9.896;2022-10-31T17:56:46;28.98;;;18.15;;